createdAt,value
2019-03-20T03:14:30.809Z,4.57
2019-03-20T03:17:01.963Z,5.17
2019-03-20T03:19:32.625Z,5.00
2019-03-20T03:22:03.093Z,5.77
2019-03-20T03:24:33.601Z,5.50
2019-03-20T03:27:04.100Z,5.37
2019-03-20T03:29:34.821Z,5.07
2019-03-20T03:32:05.577Z,4.80
2019-03-20T03:34:36.108Z,5.83
2019-03-20T03:37:06.688Z,5.80
2019-03-20T03:39:37.249Z,5.60
2019-03-20T03:42:07.892Z,5.43
2019-03-20T03:44:38.664Z,5.33
2019-03-20T03:47:09.296Z,5.90
2019-03-20T03:49:39.890Z,5.23
2019-03-20T03:52:10.403Z,5.60
2019-03-20T03:54:41.328Z,5.47
2019-03-20T03:57:12.531Z,5.57
2019-03-20T03:59:43.004Z,5.73
2019-03-20T04:02:14.054Z,5.93
2019-03-20T04:04:44.602Z,6.00
2019-03-20T04:07:15.304Z,5.53
2019-03-20T04:09:45.887Z,5.80
2019-03-20T04:12:16.354Z,6.23
2019-03-20T04:14:47.475Z,5.87
2019-03-20T04:17:26.767Z,6.03
2019-03-20T04:19:57.427Z,6.10
2019-03-20T04:22:27.944Z,5.70
2019-03-20T04:24:58.385Z,6.40
2019-03-20T04:27:29.542Z,6.03
2019-03-20T04:30:00.046Z,6.20
2019-03-20T04:32:31.073Z,6.40
2019-03-20T04:35:01.771Z,6.33
2019-03-20T04:37:32.462Z,6.30
2019-03-20T04:40:04.080Z,5.67
2019-03-20T04:42:34.636Z,6.43
2019-03-20T04:45:06.049Z,6.30
2019-03-20T04:47:36.671Z,6.67
2019-03-20T04:50:08.114Z,6.00
2019-03-20T04:52:38.584Z,6.10
2019-03-20T04:55:09.112Z,6.37
2019-03-20T04:57:40.640Z,5.97
2019-03-20T05:00:13.118Z,5.97
2019-03-20T05:02:43.701Z,5.57
2019-03-20T05:05:14.328Z,6.50
2019-03-20T05:07:45.116Z,6.83
2019-03-20T05:10:15.717Z,6.27
2019-03-20T05:12:46.292Z,7.30
2019-03-20T05:15:16.766Z,7.00
2019-03-20T05:17:47.313Z,6.33
2019-03-20T05:20:17.808Z,6.80
2019-03-20T05:22:48.671Z,7.17
2019-03-20T05:25:19.668Z,7.07
2019-03-20T05:27:50.173Z,6.17
2019-03-20T05:30:20.691Z,6.93
2019-03-20T05:32:51.173Z,6.93
2019-03-20T05:35:21.632Z,6.73
2019-03-20T05:37:52.129Z,6.23
2019-03-20T05:40:22.658Z,7.00
2019-03-20T05:42:53.175Z,7.10
2019-03-20T05:45:23.749Z,7.00
2019-03-20T05:47:54.231Z,8.33
2019-03-20T05:50:24.758Z,7.87
2019-03-20T05:52:55.392Z,6.87
2019-03-20T05:55:25.900Z,7.37
2019-03-20T05:58:03.965Z,7.17
2019-03-20T06:00:35.453Z,7.83
2019-03-20T06:03:06.066Z,7.77
2019-03-20T06:05:36.600Z,7.20
2019-03-20T06:08:08.517Z,7.23
2019-03-20T06:10:39.989Z,6.47
2019-03-20T06:13:11.008Z,7.10
2019-03-20T06:15:41.636Z,6.67
2019-03-20T06:18:12.143Z,7.83
2019-03-20T06:20:42.642Z,7.67
2019-03-20T06:23:13.142Z,7.17
2019-03-20T06:25:44.154Z,7.03
2019-03-20T06:31:32.621Z,7.37
2019-03-20T06:34:03.153Z,7.80
2019-03-20T06:36:33.925Z,7.97
2019-03-20T06:39:07.021Z,7.13
